Time,TemperatureF,DewpointF,PressureIn,WindDirection,WindDirectionDegrees,WindSpeedMPH,WindSpeedGustMPH,Humidity,HourlyPrecipIn,Conditions,Clouds,dailyrainin,SoftwareType,DateUTC
2013-08-12 00:01:00,70.5,67.0,30.06,NW,317,0.0,0.0,89,0.00,,,0.00,weatherlink.com 1.10,2013-08-12 04:01:00,
2013-08-12 00:16:00,69.9,67.0,30.06,NW,318,0.0,0.0,89,0.00,,,0.00,weatherlink.com 1.10,2013-08-12 04:16:00,
2013-08-12 00:31:00,69.5,67.0,30.06,NW,318,0.0,0.0,90,0.00,,,0.00,weatherlink.com 1.10,2013-08-12 04:31:00,
2013-08-12 00:46:00,69.4,67.0,30.06,NW,317,0.0,0.0,91,0.00,,,0.00,weatherlink.com 1.10,2013-08-12 04:46:00,
2013-08-12 01:01:00,69.2,67.0,30.07,NW,318,0.0,0.0,92,0.00,,,0.00,weatherlink.com 1.10,2013-08-12 05:01:00,
2013-08-12 01:16:00,69.1,67.0,30.07,NW,317,0.0,0.0,92,0.00,,,0.00,weatherlink.com 1.10,2013-08-12 05:16:00,
2013-08-12 01:31:00,68.8,66.0,30.07,NW,318,0.0,0.0,92,0.00,,,0.00,weatherlink.com 1.10,2013-08-12 05:31:00,
2013-08-12 01:46:00,68.7,67.0,30.06,NW,317,0.0,0.0,93,0.00,,,0.00,weatherlink.com 1.10,2013-08-12 05:46:00,
2013-08-12 02:01:00,68.3,66.0,30.06,NW,321,0.0,0.0,93,0.00,,,0.00,weatherlink.com 1.10,2013-08-12 06:01:00,
2013-08-12 02:16:00,68.1,66.0,30.06,NW,320,0.0,0.0,94,0.00,,,0.00,weatherlink.com 1.10,2013-08-12 06:16:00,
2013-08-12 02:31:00,67.9,66.0,30.06,NW,321,0.0,0.0,94,0.00,,,0.00,weatherlink.com 1.10,2013-08-12 06:31:00,
2013-08-12 02:47:00,67.6,66.0,30.05,NW,320,0.0,0.0,94,0.00,,,0.00,weatherlink.com 1.10,2013-08-12 06:47:00,
2013-08-12 03:02:00,67.4,66.0,30.05,NW,318,0.0,0.0,95,0.00,,,0.00,weatherlink.com 1.10,2013-08-12 07:02:00,
2013-08-12 03:17:00,67.3,66.0,30.05,NW,318,0.0,0.0,95,0.00,,,0.00,weatherlink.com 1.10,2013-08-12 07:17:00,
2013-08-12 03:32:00,67.1,66.0,30.05,NW,318,0.0,0.0,95,0.00,,,0.00,weatherlink.com 1.10,2013-08-12 07:32:00,
2013-08-12 03:47:00,67.1,66.0,30.05,NW,318,0.0,0.0,95,0.00,,,0.00,weatherlink.com 1.10,2013-08-12 07:47:00,
2013-08-12 04:02:00,66.9,66.0,30.05,NW,318,0.0,0.0,96,0.00,,,0.00,weatherlink.com 1.10,2013-08-12 08:02:00,
2013-08-12 04:17:00,66.8,66.0,30.05,NW,318,0.0,0.0,96,0.00,,,0.00,weatherlink.com 1.10,2013-08-12 08:17:00,
2013-08-12 04:32:00,66.9,66.0,30.05,NW,317,0.0,0.0,96,0.00,,,0.00,weatherlink.com 1.10,2013-08-12 08:32:00,
2013-08-12 04:47:00,66.9,66.0,30.05,NW,318,0.0,0.0,96,0.00,,,0.00,weatherlink.com 1.10,2013-08-12 08:47:00,
2013-08-12 05:02:00,66.8,66.0,30.05,NW,318,0.0,0.0,96,0.00,,,0.00,weatherlink.com 1.10,2013-08-12 09:02:00,
2013-08-12 05:17:00,66.8,66.0,30.05,NW,317,0.0,0.0,97,0.00,,,0.00,weatherlink.com 1.10,2013-08-12 09:17:00,
2013-08-12 05:32:00,66.7,66.0,30.04,NW,318,0.0,0.0,97,0.00,,,0.00,weatherlink.com 1.10,2013-08-12 09:32:00,
2013-08-12 05:47:00,66.6,66.0,30.05,NW,318,0.0,0.0,97,0.00,,,0.00,weatherlink.com 1.10,2013-08-12 09:47:00,
2013-08-12 06:02:00,66.5,66.0,30.04,NW,318,0.0,0.0,97,0.00,,,0.00,weatherlink.com 1.10,2013-08-12 10:02:00,
2013-08-12 06:17:00,66.3,66.0,30.05,NW,318,0.0,0.0,97,0.00,,,0.00,weatherlink.com 1.10,2013-08-12 10:17:00,
2013-08-12 06:32:00,66.4,66.0,30.05,NW,318,0.0,0.0,97,0.00,,,0.00,weatherlink.com 1.10,2013-08-12 10:32:00,
2013-08-12 06:47:00,66.3,66.0,30.05,NW,317,0.0,0.0,98,0.00,,,0.00,weatherlink.com 1.10,2013-08-12 10:47:00,
2013-08-12 07:02:00,66.3,66.0,30.04,NW,318,0.0,0.0,97,0.00,,,0.00,weatherlink.com 1.10,2013-08-12 11:02:00,
2013-08-12 07:17:00,66.3,66.0,30.04,NW,318,0.0,0.0,98,0.00,,,0.00,weatherlink.com 1.10,2013-08-12 11:17:00,
2013-08-12 07:32:00,66.7,66.0,30.04,NW,318,0.0,0.0,98,0.00,,,0.00,weatherlink.com 1.10,2013-08-12 11:32:00,
2013-08-12 07:47:00,67.6,67.0,30.04,NW,317,0.0,0.0,98,0.00,,,0.00,weatherlink.com 1.10,2013-08-12 11:47:00,
2013-08-12 08:02:00,70.1,69.0,30.04,NW,318,0.0,0.0,97,0.00,,,0.00,weatherlink.com 1.10,2013-08-12 12:02:00,
2013-08-12 08:17:00,72.5,71.0,30.04,NW,317,0.0,0.0,95,0.00,,,0.00,weatherlink.com 1.10,2013-08-12 12:17:00,
2013-08-12 08:32:00,74.2,71.0,30.04,NW,318,0.0,0.0,89,0.00,,,0.00,weatherlink.com 1.10,2013-08-12 12:32:00,
2013-08-12 08:47:00,75.7,71.0,30.04,NW,318,0.0,0.0,85,0.00,,,0.00,weatherlink.com 1.10,2013-08-12 12:47:00,
2013-08-12 09:02:00,77.0,71.0,30.04,WSW,256,0.0,0.0,81,0.00,,,0.00,weatherlink.com 1.10,2013-08-12 13:02:00,
2013-08-12 09:17:00,77.4,70.0,30.04,WSW,246,0.0,2.0,79,0.00,,,0.00,weatherlink.com 1.10,2013-08-12 13:17:00,
2013-08-12 09:32:00,79.0,71.0,30.04,SSW,211,0.0,1.0,77,0.00,,,0.00,weatherlink.com 1.10,2013-08-12 13:32:00,
2013-08-12 09:47:00,80.4,71.0,30.04,South,189,0.0,2.0,74,0.00,,,0.00,weatherlink.com 1.10,2013-08-12 13:47:00,
2013-08-12 10:02:00,81.5,71.0,30.03,SW,236,1.0,2.0,70,0.00,,,0.00,weatherlink.com 1.10,2013-08-12 14:02:00,
2013-08-12 10:17:00,81.5,71.0,30.03,ESE,117,0.0,2.0,71,0.00,,,0.00,weatherlink.com 1.10,2013-08-12 14:17:00,
2013-08-12 10:32:00,82.2,71.0,30.03,SW,228,0.0,0.0,68,0.00,,,0.00,weatherlink.com 1.10,2013-08-12 14:32:00,
2013-08-12 10:48:00,83.5,71.0,30.02,East,84,0.0,1.0,66,0.00,,,0.00,weatherlink.com 1.10,2013-08-12 14:48:00,
2013-08-12 11:03:00,84.3,70.0,30.02,SW,215,0.0,2.0,63,0.00,,,0.00,weatherlink.com 1.10,2013-08-12 15:03:00,
2013-08-12 11:18:00,83.6,70.0,30.02,SW,229,0.0,2.0,64,0.00,,,0.00,weatherlink.com 1.10,2013-08-12 15:18:00,
2013-08-12 11:33:00,82.7,70.0,30.02,NW,306,0.0,6.0,65,0.00,,,0.00,weatherlink.com 1.10,2013-08-12 15:33:00,
2013-08-12 11:48:00,83.4,70.0,30.02,WSW,245,2.0,3.0,64,0.00,,,0.00,weatherlink.com 1.10,2013-08-12 15:48:00,
2013-08-12 12:03:00,83.8,70.0,30.02,SW,235,0.0,3.0,64,0.00,,,0.00,weatherlink.com 1.10,2013-08-12 16:03:00,
2013-08-12 12:18:00,84.4,69.0,30.01,SSE,157,0.0,4.0,61,0.00,,,0.00,weatherlink.com 1.10,2013-08-12 16:18:00,
2013-08-12 12:33:00,84.5,70.0,30.01,South,187,1.0,6.0,63,0.00,,,0.00,weatherlink.com 1.10,2013-08-12 16:33:00,
2013-08-12 12:48:00,85.4,70.0,30.00,SW,235,3.0,4.0,61,0.00,,,0.00,weatherlink.com 1.10,2013-08-12 16:48:00,
2013-08-12 13:03:00,85.3,70.0,30.00,SW,232,2.0,5.0,61,0.00,,,0.00,weatherlink.com 1.10,2013-08-12 17:03:00,
2013-08-12 13:18:00,85.7,70.0,30.00,West,260,1.0,6.0,59,0.00,,,0.00,weatherlink.com 1.10,2013-08-12 17:18:00,
2013-08-12 13:33:00,85.9,69.0,29.99,SW,228,2.0,8.0,57,0.00,,,0.00,weatherlink.com 1.10,2013-08-12 17:33:00,
2013-08-12 13:48:00,86.7,70.0,29.98,SSW,193,1.0,6.0,58,0.00,,,0.00,weatherlink.com 1.10,2013-08-12 17:48:00,
2013-08-12 14:03:00,86.3,69.0,29.98,SW,225,2.0,5.0,57,0.00,,,0.00,weatherlink.com 1.10,2013-08-12 18:03:00,
2013-08-12 14:18:00,85.3,71.0,29.98,SW,235,0.0,4.0,62,0.00,,,0.00,weatherlink.com 1.10,2013-08-12 18:18:00,
2013-08-12 14:33:00,86.0,70.0,29.97,WSW,238,0.0,3.0,60,0.00,,,0.00,weatherlink.com 1.10,2013-08-12 18:33:00,
2013-08-12 14:48:00,85.2,70.0,29.96,South,182,2.0,4.0,60,0.00,,,0.00,weatherlink.com 1.10,2013-08-12 18:48:00,
2013-08-12 15:03:00,85.2,71.0,29.95,SSW,211,1.0,4.0,62,0.00,,,0.00,weatherlink.com 1.10,2013-08-12 19:03:00,
2013-08-12 15:18:00,85.9,71.0,29.95,WSW,256,1.0,3.0,62,0.00,,,0.00,weatherlink.com 1.10,2013-08-12 19:18:00,
2013-08-12 15:33:00,86.1,72.0,29.94,WSW,256,3.0,5.0,62,0.00,,,0.00,weatherlink.com 1.10,2013-08-12 19:33:00,
2013-08-12 15:48:00,86.0,71.0,29.93,SSW,204,1.0,4.0,62,0.00,,,0.00,weatherlink.com 1.10,2013-08-12 19:48:00,
2013-08-12 16:03:00,88.0,73.0,29.92,WSW,245,0.0,3.0,61,0.00,,,0.00,weatherlink.com 1.10,2013-08-12 20:03:00,
2013-08-12 16:18:00,87.7,72.0,29.92,SW,225,1.0,4.0,60,0.00,,,0.00,weatherlink.com 1.10,2013-08-12 20:18:00,
2013-08-12 16:33:00,85.4,71.0,29.92,SSW,212,0.0,4.0,63,0.00,,,0.00,weatherlink.com 1.10,2013-08-12 20:33:00,
2013-08-12 16:48:00,84.3,72.0,29.92,SSW,208,2.0,5.0,66,0.00,,,0.00,weatherlink.com 1.10,2013-08-12 20:48:00,
2013-08-12 17:03:00,83.9,73.0,29.91,SW,228,3.0,4.0,69,0.00,,,0.00,weatherlink.com 1.10,2013-08-12 21:03:00,
2013-08-12 17:18:00,84.0,73.0,29.91,SW,219,3.0,4.0,69,0.00,,,0.00,weatherlink.com 1.10,2013-08-12 21:18:00,
2013-08-12 17:33:00,82.8,74.0,29.90,West,263,0.0,1.0,75,0.00,,,0.00,weatherlink.com 1.10,2013-08-12 21:33:00,
2013-08-12 17:48:00,81.3,74.0,29.90,NW,318,3.0,4.0,79,0.00,,,0.00,weatherlink.com 1.10,2013-08-12 21:48:00,
2013-08-12 18:03:00,80.3,74.0,29.90,WNW,284,0.0,1.0,82,0.00,,,0.00,weatherlink.com 1.10,2013-08-12 22:03:00,
2013-08-12 18:18:00,80.1,75.0,29.90,NNW,330,0.0,0.0,85,0.00,,,0.00,weatherlink.com 1.10,2013-08-12 22:18:00,
2013-08-12 18:33:00,79.8,75.0,29.89,SW,217,0.0,0.0,84,0.00,,,0.00,weatherlink.com 1.10,2013-08-12 22:33:00,
2013-08-12 18:49:00,80.5,75.0,29.88,West,278,0.0,0.0,82,0.00,,,0.00,weatherlink.com 1.10,2013-08-12 22:49:00,
2013-08-12 19:04:00,80.6,75.0,29.89,WSW,243,0.0,0.0,83,0.00,,,0.00,weatherlink.com 1.10,2013-08-12 23:04:00,
2013-08-12 19:19:00,80.0,74.0,29.89,WSW,239,0.0,2.0,83,0.00,,,0.00,weatherlink.com 1.10,2013-08-12 23:19:00,
2013-08-12 19:34:00,79.8,74.0,29.89,WSW,250,1.0,2.0,82,0.00,,,0.00,weatherlink.com 1.10,2013-08-12 23:34:00,
2013-08-12 19:49:00,79.6,74.0,29.88,WSW,253,1.0,5.0,82,0.00,,,0.00,weatherlink.com 1.10,2013-08-12 23:49:00,
2013-08-12 20:04:00,79.4,74.0,29.88,WSW,239,0.0,1.0,83,0.00,,,0.00,weatherlink.com 1.10,2013-08-13 00:04:00,
2013-08-12 20:19:00,79.0,74.0,29.88,SSW,208,1.0,2.0,84,0.00,,,0.00,weatherlink.com 1.10,2013-08-13 00:19:00,
2013-08-12 20:34:00,78.5,73.0,29.88,WSW,242,0.0,2.0,84,0.00,,,0.00,weatherlink.com 1.10,2013-08-13 00:34:00,
2013-08-12 20:49:00,78.1,73.0,29.88,SW,235,0.0,3.0,85,0.00,,,0.00,weatherlink.com 1.10,2013-08-13 00:49:00,
2013-08-12 21:04:00,77.7,73.0,29.88,SW,232,0.0,6.0,85,0.00,,,0.00,weatherlink.com 1.10,2013-08-13 01:04:00,
2013-08-12 21:19:00,77.4,73.0,29.87,WSW,242,0.0,3.0,86,0.00,,,0.00,weatherlink.com 1.10,2013-08-13 01:19:00,
2013-08-12 21:34:00,77.0,73.0,29.87,SW,236,0.0,2.0,87,0.00,,,0.00,weatherlink.com 1.10,2013-08-13 01:34:00,
2013-08-12 21:49:00,76.9,73.0,29.86,WSW,239,0.0,2.0,88,0.00,,,0.00,weatherlink.com 1.10,2013-08-13 01:49:00,
2013-08-12 22:04:00,76.6,73.0,29.86,WSW,242,0.0,1.0,89,0.00,,,0.00,weatherlink.com 1.10,2013-08-13 02:04:00,
2013-08-12 22:19:00,76.3,73.0,29.87,WSW,240,0.0,1.0,90,0.00,,,0.00,weatherlink.com 1.10,2013-08-13 02:19:00,
2013-08-12 22:34:00,76.0,73.0,29.87,WSW,246,0.0,0.0,90,0.00,,,0.00,weatherlink.com 1.10,2013-08-13 02:34:00,
2013-08-12 22:49:00,75.9,73.0,29.88,WSW,248,0.0,0.0,91,0.00,,,0.00,weatherlink.com 1.10,2013-08-13 02:49:00,
2013-08-12 23:04:00,75.9,73.0,29.88,West,262,0.0,2.0,91,0.00,,,0.00,weatherlink.com 1.10,2013-08-13 03:04:00,
2013-08-12 23:19:00,75.9,73.0,29.88,West,267,0.0,1.0,91,0.00,,,0.00,weatherlink.com 1.10,2013-08-13 03:19:00,
2013-08-12 23:34:00,75.9,74.0,29.88,SW,228,0.0,1.0,92,0.00,,,0.00,weatherlink.com 1.10,2013-08-13 03:34:00,
2013-08-12 23:49:00,75.9,74.0,29.88,SW,235,0.0,2.0,92,0.00,,,0.00,weatherlink.com 1.10,2013-08-13 03:49:00,